sensor_id;sensor_type;location;lat;lon;timestamp;temperature;humidity
17080;DHT22;8655;57.106;-2.088;2023-12-20T00:01:01;14.70;54.80
17080;DHT22;8655;57.106;-2.088;2023-12-20T00:03:26;14.70;54.80
17080;DHT22;8655;57.106;-2.088;2023-12-20T00:05:53;14.70;54.80
17080;DHT22;8655;57.106;-2.088;2023-12-20T00:08:19;14.70;54.80
17080;DHT22;8655;57.106;-2.088;2023-12-20T00:10:44;14.70;54.80
17080;DHT22;8655;57.106;-2.088;2023-12-20T00:13:10;14.70;54.80
17080;DHT22;8655;57.106;-2.088;2023-12-20T00:15:36;14.70;54.80
17080;DHT22;8655;57.106;-2.088;2023-12-20T00:18:02;14.70;54.80
17080;DHT22;8655;57.106;-2.088;2023-12-20T00:20:28;14.70;54.80
17080;DHT22;8655;57.106;-2.088;2023-12-20T00:22:56;14.70;54.80
17080;DHT22;8655;57.106;-2.088;2023-12-20T00:25:23;14.70;54.80
17080;DHT22;8655;57.106;-2.088;2023-12-20T00:27:49;14.70;54.80
17080;DHT22;8655;57.106;-2.088;2023-12-20T00:30:14;14.70;54.80
17080;DHT22;8655;57.106;-2.088;2023-12-20T00:32:40;14.60;54.70
17080;DHT22;8655;57.106;-2.088;2023-12-20T00:35:15;14.70;54.80
17080;DHT22;8655;57.106;-2.088;2023-12-20T00:37:41;14.60;54.70
17080;DHT22;8655;57.106;-2.088;2023-12-20T00:40:07;14.60;54.70
17080;DHT22;8655;57.106;-2.088;2023-12-20T00:42:33;14.60;54.70
17080;DHT22;8655;57.106;-2.088;2023-12-20T00:44:59;14.60;54.70
17080;DHT22;8655;57.106;-2.088;2023-12-20T00:47:25;14.60;54.70
17080;DHT22;8655;57.106;-2.088;2023-12-20T00:49:51;14.60;54.70
17080;DHT22;8655;57.106;-2.088;2023-12-20T00:52:17;14.60;54.70
17080;DHT22;8655;57.106;-2.088;2023-12-20T00:54:43;14.60;54.70
17080;DHT22;8655;57.106;-2.088;2023-12-20T00:57:09;14.60;54.70
17080;DHT22;8655;57.106;-2.088;2023-12-20T00:59:35;14.60;54.70
17080;DHT22;8655;57.106;-2.088;2023-12-20T01:02:01;14.60;54.70
17080;DHT22;8655;57.106;-2.088;2023-12-20T01:04:26;14.60;54.70
17080;DHT22;8655;57.106;-2.088;2023-12-20T01:06:52;14.60;54.70
17080;DHT22;8655;57.106;-2.088;2023-12-20T01:09:18;14.60;54.70
17080;DHT22;8655;57.106;-2.088;2023-12-20T01:11:45;14.60;54.70
17080;DHT22;8655;57.106;-2.088;2023-12-20T01:14:14;14.60;54.70
17080;DHT22;8655;57.106;-2.088;2023-12-20T01:16:39;14.50;54.60
17080;DHT22;8655;57.106;-2.088;2023-12-20T01:19:05;14.50;54.60
17080;DHT22;8655;57.106;-2.088;2023-12-20T01:21:32;14.50;54.60
17080;DHT22;8655;57.106;-2.088;2023-12-20T01:23:57;14.50;54.60
17080;DHT22;8655;57.106;-2.088;2023-12-20T01:26:23;14.50;54.50
17080;DHT22;8655;57.106;-2.088;2023-12-20T01:28:49;14.50;54.60
17080;DHT22;8655;57.106;-2.088;2023-12-20T01:31:15;14.50;54.60
17080;DHT22;8655;57.106;-2.088;2023-12-20T01:33:40;14.50;54.60
17080;DHT22;8655;57.106;-2.088;2023-12-20T01:36:06;14.50;54.60
17080;DHT22;8655;57.106;-2.088;2023-12-20T01:38:32;14.40;54.50
17080;DHT22;8655;57.106;-2.088;2023-12-20T01:40:58;14.40;54.50
17080;DHT22;8655;57.106;-2.088;2023-12-20T01:43:24;14.40;54.50
17080;DHT22;8655;57.106;-2.088;2023-12-20T01:45:50;14.40;54.50
17080;DHT22;8655;57.106;-2.088;2023-12-20T01:48:17;14.40;54.50
17080;DHT22;8655;57.106;-2.088;2023-12-20T01:50:44;14.40;54.50
17080;DHT22;8655;57.106;-2.088;2023-12-20T01:53:12;14.40;54.50
17080;DHT22;8655;57.106;-2.088;2023-12-20T01:55:40;14.40;54.50
17080;DHT22;8655;57.106;-2.088;2023-12-20T01:58:09;14.40;54.50
17080;DHT22;8655;57.106;-2.088;2023-12-20T02:00:36;14.40;54.50
17080;DHT22;8655;57.106;-2.088;2023-12-20T02:03:03;14.30;54.40
17080;DHT22;8655;57.106;-2.088;2023-12-20T02:05:34;14.30;54.40
17080;DHT22;8655;57.106;-2.088;2023-12-20T02:08:00;14.30;54.30
17080;DHT22;8655;57.106;-2.088;2023-12-20T02:10:26;14.30;54.30
17080;DHT22;8655;57.106;-2.088;2023-12-20T02:12:52;14.30;54.30
17080;DHT22;8655;57.106;-2.088;2023-12-20T02:15:18;14.30;54.30
17080;DHT22;8655;57.106;-2.088;2023-12-20T02:17:44;14.30;54.40
17080;DHT22;8655;57.106;-2.088;2023-12-20T02:20:10;14.30;54.40
17080;DHT22;8655;57.106;-2.088;2023-12-20T02:22:36;14.30;54.40
17080;DHT22;8655;57.106;-2.088;2023-12-20T02:25:02;14.30;54.40
17080;DHT22;8655;57.106;-2.088;2023-12-20T02:27:29;14.30;54.40
17080;DHT22;8655;57.106;-2.088;2023-12-20T02:29:55;14.30;54.40
17080;DHT22;8655;57.106;-2.088;2023-12-20T02:32:21;14.20;54.30
17080;DHT22;8655;57.106;-2.088;2023-12-20T02:34:49;14.20;54.30
17080;DHT22;8655;57.106;-2.088;2023-12-20T02:37:15;14.20;54.30
17080;DHT22;8655;57.106;-2.088;2023-12-20T02:39:41;14.20;54.30
17080;DHT22;8655;57.106;-2.088;2023-12-20T02:42:07;14.20;54.30
17080;DHT22;8655;57.106;-2.088;2023-12-20T02:44:32;14.20;54.30
17080;DHT22;8655;57.106;-2.088;2023-12-20T02:46:58;14.20;54.30
17080;DHT22;8655;57.106;-2.088;2023-12-20T02:49:24;14.20;54.30
17080;DHT22;8655;57.106;-2.088;2023-12-20T02:51:49;14.20;54.30
17080;DHT22;8655;57.106;-2.088;2023-12-20T02:54:15;14.20;54.20
17080;DHT22;8655;57.106;-2.088;2023-12-20T02:56:41;14.20;54.20
17080;DHT22;8655;57.106;-2.088;2023-12-20T02:59:07;14.20;54.20
17080;DHT22;8655;57.106;-2.088;2023-12-20T03:01:34;14.20;54.20
17080;DHT22;8655;57.106;-2.088;2023-12-20T03:04:00;14.20;54.20
17080;DHT22;8655;57.106;-2.088;2023-12-20T03:06:26;14.20;54.20
17080;DHT22;8655;57.106;-2.088;2023-12-20T03:08:52;14.10;54.10
17080;DHT22;8655;57.106;-2.088;2023-12-20T03:11:18;14.10;54.10
17080;DHT22;8655;57.106;-2.088;2023-12-20T03:13:43;14.10;54.10
17080;DHT22;8655;57.106;-2.088;2023-12-20T03:16:10;14.10;54.10
17080;DHT22;8655;57.106;-2.088;2023-12-20T03:18:36;14.10;54.10
17080;DHT22;8655;57.106;-2.088;2023-12-20T03:21:02;14.10;54.10
17080;DHT22;8655;57.106;-2.088;2023-12-20T03:23:29;14.10;54.10
17080;DHT22;8655;57.106;-2.088;2023-12-20T03:25:56;14.10;54.10
17080;DHT22;8655;57.106;-2.088;2023-12-20T03:28:22;14.10;54.10
17080;DHT22;8655;57.106;-2.088;2023-12-20T03:30:48;14.10;54.10
17080;DHT22;8655;57.106;-2.088;2023-12-20T03:33:14;14.10;54.10
17080;DHT22;8655;57.106;-2.088;2023-12-20T03:35:40;14.10;54.10
17080;DHT22;8655;57.106;-2.088;2023-12-20T03:38:06;14.10;54.10
17080;DHT22;8655;57.106;-2.088;2023-12-20T03:40:31;14.10;54.10
17080;DHT22;8655;57.106;-2.088;2023-12-20T03:42:57;14.10;54.70
17080;DHT22;8655;57.106;-2.088;2023-12-20T03:45:23;14.00;54.00
17080;DHT22;8655;57.106;-2.088;2023-12-20T03:47:48;14.00;54.00
17080;DHT22;8655;57.106;-2.088;2023-12-20T03:50:15;14.00;54.00
17080;DHT22;8655;57.106;-2.088;2023-12-20T03:52:40;14.00;54.00
17080;DHT22;8655;57.106;-2.088;2023-12-20T03:55:06;14.00;54.00
17080;DHT22;8655;57.106;-2.088;2023-12-20T03:57:32;14.00;54.00
17080;DHT22;8655;57.106;-2.088;2023-12-20T03:59:58;14.00;54.00
17080;DHT22;8655;57.106;-2.088;2023-12-20T04:02:23;14.00;54.00
17080;DHT22;8655;57.106;-2.088;2023-12-20T04:04:49;14.00;54.00
17080;DHT22;8655;57.106;-2.088;2023-12-20T04:07:15;14.00;54.00
17080;DHT22;8655;57.106;-2.088;2023-12-20T04:09:41;14.00;54.10
17080;DHT22;8655;57.106;-2.088;2023-12-20T04:12:07;14.00;54.00
17080;DHT22;8655;57.106;-2.088;2023-12-20T04:14:32;14.00;54.00
17080;DHT22;8655;57.106;-2.088;2023-12-20T04:16:58;14.00;54.00
17080;DHT22;8655;57.106;-2.088;2023-12-20T04:19:24;14.00;54.00
17080;DHT22;8655;57.106;-2.088;2023-12-20T04:21:50;14.00;54.00
17080;DHT22;8655;57.106;-2.088;2023-12-20T04:24:15;14.00;54.00
17080;DHT22;8655;57.106;-2.088;2023-12-20T04:26:41;14.00;54.00
17080;DHT22;8655;57.106;-2.088;2023-12-20T04:29:07;14.00;54.00
17080;DHT22;8655;57.106;-2.088;2023-12-20T04:31:33;14.00;54.00
17080;DHT22;8655;57.106;-2.088;2023-12-20T04:33:59;14.00;54.00
17080;DHT22;8655;57.106;-2.088;2023-12-20T04:36:24;14.00;54.00
17080;DHT22;8655;57.106;-2.088;2023-12-20T04:38:53;14.00;54.00
17080;DHT22;8655;57.106;-2.088;2023-12-20T04:41:18;13.90;53.90
17080;DHT22;8655;57.106;-2.088;2023-12-20T04:43:44;13.90;53.90
17080;DHT22;8655;57.106;-2.088;2023-12-20T04:46:10;13.90;53.90
17080;DHT22;8655;57.106;-2.088;2023-12-20T04:48:36;13.90;53.90
17080;DHT22;8655;57.106;-2.088;2023-12-20T04:51:02;13.90;53.90
17080;DHT22;8655;57.106;-2.088;2023-12-20T04:53:28;13.90;53.90
17080;DHT22;8655;57.106;-2.088;2023-12-20T04:55:53;13.90;53.90
17080;DHT22;8655;57.106;-2.088;2023-12-20T04:58:19;13.90;53.90
17080;DHT22;8655;57.106;-2.088;2023-12-20T05:00:45;13.90;53.90
17080;DHT22;8655;57.106;-2.088;2023-12-20T05:03:11;13.90;53.90
17080;DHT22;8655;57.106;-2.088;2023-12-20T05:05:36;13.90;53.90
17080;DHT22;8655;57.106;-2.088;2023-12-20T05:08:02;13.90;53.90
17080;DHT22;8655;57.106;-2.088;2023-12-20T05:10:29;13.90;53.90
17080;DHT22;8655;57.106;-2.088;2023-12-20T05:12:55;13.90;53.90
17080;DHT22;8655;57.106;-2.088;2023-12-20T05:15:20;13.90;53.90
17080;DHT22;8655;57.106;-2.088;2023-12-20T05:17:46;13.90;53.90
17080;DHT22;8655;57.106;-2.088;2023-12-20T05:20:12;13.90;53.90
17080;DHT22;8655;57.106;-2.088;2023-12-20T05:22:37;13.90;53.90
17080;DHT22;8655;57.106;-2.088;2023-12-20T05:25:04;13.90;53.90
17080;DHT22;8655;57.106;-2.088;2023-12-20T05:27:30;13.90;53.90
17080;DHT22;8655;57.106;-2.088;2023-12-20T05:29:55;13.90;53.90
17080;DHT22;8655;57.106;-2.088;2023-12-20T05:32:23;13.80;53.80
17080;DHT22;8655;57.106;-2.088;2023-12-20T05:34:49;13.90;53.90
17080;DHT22;8655;57.106;-2.088;2023-12-20T05:37:15;13.80;53.80
17080;DHT22;8655;57.106;-2.088;2023-12-20T05:39:40;13.80;53.80
17080;DHT22;8655;57.106;-2.088;2023-12-20T05:42:06;13.80;53.80
17080;DHT22;8655;57.106;-2.088;2023-12-20T05:44:32;13.80;53.80
17080;DHT22;8655;57.106;-2.088;2023-12-20T05:46:57;13.80;53.80
17080;DHT22;8655;57.106;-2.088;2023-12-20T05:49:23;13.80;53.80
17080;DHT22;8655;57.106;-2.088;2023-12-20T05:51:49;13.80;53.90
17080;DHT22;8655;57.106;-2.088;2023-12-20T05:54:16;13.80;53.90
17080;DHT22;8655;57.106;-2.088;2023-12-20T05:56:42;13.80;53.90
17080;DHT22;8655;57.106;-2.088;2023-12-20T05:59:07;13.80;53.90
17080;DHT22;8655;57.106;-2.088;2023-12-20T06:01:33;13.80;53.80
17080;DHT22;8655;57.106;-2.088;2023-12-20T06:03:59;13.80;53.80
17080;DHT22;8655;57.106;-2.088;2023-12-20T06:06:24;13.80;53.80
17080;DHT22;8655;57.106;-2.088;2023-12-20T06:08:50;13.80;53.90
17080;DHT22;8655;57.106;-2.088;2023-12-20T06:11:16;13.80;53.80
17080;DHT22;8655;57.106;-2.088;2023-12-20T06:13:42;13.80;53.80
17080;DHT22;8655;57.106;-2.088;2023-12-20T06:16:07;13.80;53.80
17080;DHT22;8655;57.106;-2.088;2023-12-20T06:18:33;13.80;53.80
17080;DHT22;8655;57.106;-2.088;2023-12-20T06:20:59;13.80;53.90
17080;DHT22;8655;57.106;-2.088;2023-12-20T06:23:25;13.80;53.80
17080;DHT22;8655;57.106;-2.088;2023-12-20T06:25:50;13.80;53.90
17080;DHT22;8655;57.106;-2.088;2023-12-20T06:28:16;13.80;53.90
17080;DHT22;8655;57.106;-2.088;2023-12-20T06:30:42;13.80;53.80
17080;DHT22;8655;57.106;-2.088;2023-12-20T06:33:07;13.70;53.70
17080;DHT22;8655;57.106;-2.088;2023-12-20T06:35:35;13.70;53.80
17080;DHT22;8655;57.106;-2.088;2023-12-20T06:38:00;13.80;53.90
17080;DHT22;8655;57.106;-2.088;2023-12-20T06:40:26;13.80;53.90
17080;DHT22;8655;57.106;-2.088;2023-12-20T06:42:52;13.70;53.80
17080;DHT22;8655;57.106;-2.088;2023-12-20T06:45:18;13.70;53.80
17080;DHT22;8655;57.106;-2.088;2023-12-20T06:47:43;13.70;53.80
17080;DHT22;8655;57.106;-2.088;2023-12-20T06:50:09;13.70;53.80
17080;DHT22;8655;57.106;-2.088;2023-12-20T06:52:35;13.70;53.80
17080;DHT22;8655;57.106;-2.088;2023-12-20T06:55:01;13.70;53.70
17080;DHT22;8655;57.106;-2.088;2023-12-20T06:57:27;13.70;53.80
17080;DHT22;8655;57.106;-2.088;2023-12-20T06:59:53;13.70;53.80
17080;DHT22;8655;57.106;-2.088;2023-12-20T07:02:19;13.70;53.80
17080;DHT22;8655;57.106;-2.088;2023-12-20T07:04:44;13.70;53.80
17080;DHT22;8655;57.106;-2.088;2023-12-20T07:07:10;13.70;53.80
17080;DHT22;8655;57.106;-2.088;2023-12-20T07:09:36;13.70;53.80
17080;DHT22;8655;57.106;-2.088;2023-12-20T07:12:02;13.70;53.80
17080;DHT22;8655;57.106;-2.088;2023-12-20T07:14:28;13.70;53.80
17080;DHT22;8655;57.106;-2.088;2023-12-20T07:16:54;13.70;53.80
17080;DHT22;8655;57.106;-2.088;2023-12-20T07:19:20;13.70;53.80
17080;DHT22;8655;57.106;-2.088;2023-12-20T07:21:46;13.70;54.40
17080;DHT22;8655;57.106;-2.088;2023-12-20T07:24:11;13.70;53.80
17080;DHT22;8655;57.106;-2.088;2023-12-20T07:26:37;13.70;53.80
17080;DHT22;8655;57.106;-2.088;2023-12-20T07:29:04;13.70;53.80
17080;DHT22;8655;57.106;-2.088;2023-12-20T07:31:30;13.70;53.80
17080;DHT22;8655;57.106;-2.088;2023-12-20T07:33:56;13.70;53.80
17080;DHT22;8655;57.106;-2.088;2023-12-20T07:36:21;13.70;53.80
17080;DHT22;8655;57.106;-2.088;2023-12-20T07:38:47;13.70;53.80
17080;DHT22;8655;57.106;-2.088;2023-12-20T07:41:13;13.70;53.80
17080;DHT22;8655;57.106;-2.088;2023-12-20T07:43:41;13.70;53.80
17080;DHT22;8655;57.106;-2.088;2023-12-20T07:46:08;13.70;53.80
17080;DHT22;8655;57.106;-2.088;2023-12-20T07:48:34;13.70;53.80
17080;DHT22;8655;57.106;-2.088;2023-12-20T07:51:01;13.70;53.80
17080;DHT22;8655;57.106;-2.088;2023-12-20T07:53:26;13.70;53.80
17080;DHT22;8655;57.106;-2.088;2023-12-20T07:55:52;13.70;53.80
17080;DHT22;8655;57.106;-2.088;2023-12-20T07:58:19;13.70;53.80
17080;DHT22;8655;57.106;-2.088;2023-12-20T08:00:44;13.70;53.80
17080;DHT22;8655;57.106;-2.088;2023-12-20T08:03:10;13.70;53.80
17080;DHT22;8655;57.106;-2.088;2023-12-20T08:05:36;13.70;53.80
17080;DHT22;8655;57.106;-2.088;2023-12-20T08:08:02;13.70;53.80
17080;DHT22;8655;57.106;-2.088;2023-12-20T08:10:28;13.70;53.80
17080;DHT22;8655;57.106;-2.088;2023-12-20T08:12:55;13.60;53.70
17080;DHT22;8655;57.106;-2.088;2023-12-20T08:15:21;13.70;53.80
17080;DHT22;8655;57.106;-2.088;2023-12-20T08:17:46;13.60;54.30
17080;DHT22;8655;57.106;-2.088;2023-12-20T08:20:12;13.60;53.80
17080;DHT22;8655;57.106;-2.088;2023-12-20T08:22:38;13.60;53.80
17080;DHT22;8655;57.106;-2.088;2023-12-20T08:25:04;13.60;53.70
17080;DHT22;8655;57.106;-2.088;2023-12-20T08:27:30;13.60;53.80
17080;DHT22;8655;57.106;-2.088;2023-12-20T08:29:57;13.60;53.80
17080;DHT22;8655;57.106;-2.088;2023-12-20T08:32:25;13.60;53.80
17080;DHT22;8655;57.106;-2.088;2023-12-20T08:34:52;13.60;53.80
17080;DHT22;8655;57.106;-2.088;2023-12-20T08:37:18;13.60;53.80
17080;DHT22;8655;57.106;-2.088;2023-12-20T08:39:43;13.60;53.80
17080;DHT22;8655;57.106;-2.088;2023-12-20T08:42:10;13.60;53.80
17080;DHT22;8655;57.106;-2.088;2023-12-20T08:44:35;13.60;53.80
17080;DHT22;8655;57.106;-2.088;2023-12-20T08:47:01;13.60;53.80
17080;DHT22;8655;57.106;-2.088;2023-12-20T08:49:27;13.60;53.80
17080;DHT22;8655;57.106;-2.088;2023-12-20T08:51:53;13.60;53.80
17080;DHT22;8655;57.106;-2.088;2023-12-20T08:54:19;13.60;53.80
17080;DHT22;8655;57.106;-2.088;2023-12-20T08:56:45;13.60;54.40
17080;DHT22;8655;57.106;-2.088;2023-12-20T08:59:11;13.60;53.80
17080;DHT22;8655;57.106;-2.088;2023-12-20T09:01:37;13.60;53.80
17080;DHT22;8655;57.106;-2.088;2023-12-20T09:04:03;13.60;53.80
17080;DHT22;8655;57.106;-2.088;2023-12-20T09:06:29;13.60;53.80
17080;DHT22;8655;57.106;-2.088;2023-12-20T09:08:55;13.60;53.80
17080;DHT22;8655;57.106;-2.088;2023-12-20T09:11:20;13.60;53.80
17080;DHT22;8655;57.106;-2.088;2023-12-20T09:13:46;13.60;53.80
17080;DHT22;8655;57.106;-2.088;2023-12-20T09:16:12;13.60;53.80
17080;DHT22;8655;57.106;-2.088;2023-12-20T09:18:39;13.60;53.80
17080;DHT22;8655;57.106;-2.088;2023-12-20T09:21:04;13.60;53.80
17080;DHT22;8655;57.106;-2.088;2023-12-20T09:23:30;13.60;54.40
17080;DHT22;8655;57.106;-2.088;2023-12-20T09:25:56;13.60;53.80
17080;DHT22;8655;57.106;-2.088;2023-12-20T09:28:21;13.60;53.80
17080;DHT22;8655;57.106;-2.088;2023-12-20T09:30:47;13.60;53.80
17080;DHT22;8655;57.106;-2.088;2023-12-20T09:33:13;13.60;53.80
17080;DHT22;8655;57.106;-2.088;2023-12-20T09:35:39;13.60;53.80
17080;DHT22;8655;57.106;-2.088;2023-12-20T09:38:05;13.60;54.40
17080;DHT22;8655;57.106;-2.088;2023-12-20T09:40:32;13.60;53.80
17080;DHT22;8655;57.106;-2.088;2023-12-20T09:45:27;13.60;53.80
17080;DHT22;8655;57.106;-2.088;2023-12-20T09:47:54;13.60;53.90
17080;DHT22;8655;57.106;-2.088;2023-12-20T09:50:22;13.60;53.80
17080;DHT22;8655;57.106;-2.088;2023-12-20T09:52:51;13.60;53.80
17080;DHT22;8655;57.106;-2.088;2023-12-20T09:55:20;13.60;53.90
17080;DHT22;8655;57.106;-2.088;2023-12-20T09:57:47;13.60;53.80
17080;DHT22;8655;57.106;-2.088;2023-12-20T10:00:14;13.60;53.80
17080;DHT22;8655;57.106;-2.088;2023-12-20T10:02:50;13.60;53.90
17080;DHT22;8655;57.106;-2.088;2023-12-20T10:05:33;13.60;53.90
17080;DHT22;8655;57.106;-2.088;2023-12-20T10:07:59;13.60;53.90
17080;DHT22;8655;57.106;-2.088;2023-12-20T10:10:26;13.60;53.90
17080;DHT22;8655;57.106;-2.088;2023-12-20T10:13:11;13.60;53.90
17080;DHT22;8655;57.106;-2.088;2023-12-20T10:15:38;13.60;53.90
17080;DHT22;8655;57.106;-2.088;2023-12-20T10:18:04;13.60;53.90
17080;DHT22;8655;57.106;-2.088;2023-12-20T10:20:30;13.60;53.90
17080;DHT22;8655;57.106;-2.088;2023-12-20T10:22:58;13.60;53.90
17080;DHT22;8655;57.106;-2.088;2023-12-20T10:25:24;13.60;53.90
17080;DHT22;8655;57.106;-2.088;2023-12-20T10:27:56;13.60;53.90
17080;DHT22;8655;57.106;-2.088;2023-12-20T10:30:33;13.60;53.90
17080;DHT22;8655;57.106;-2.088;2023-12-20T10:32:59;13.60;53.90
17080;DHT22;8655;57.106;-2.088;2023-12-20T10:35:25;13.60;53.90
17080;DHT22;8655;57.106;-2.088;2023-12-20T10:37:55;13.60;53.90
17080;DHT22;8655;57.106;-2.088;2023-12-20T10:40:26;13.60;53.90
17080;DHT22;8655;57.106;-2.088;2023-12-20T10:42:53;13.60;53.90
17080;DHT22;8655;57.106;-2.088;2023-12-20T10:45:19;13.60;53.90
17080;DHT22;8655;57.106;-2.088;2023-12-20T10:47:46;13.60;53.90
17080;DHT22;8655;57.106;-2.088;2023-12-20T10:50:12;13.60;53.90
17080;DHT22;8655;57.106;-2.088;2023-12-20T10:52:38;13.60;53.90
17080;DHT22;8655;57.106;-2.088;2023-12-20T10:55:06;13.60;53.90
17080;DHT22;8655;57.106;-2.088;2023-12-20T10:57:33;13.60;53.90
17080;DHT22;8655;57.106;-2.088;2023-12-20T11:00:02;13.60;53.90
17080;DHT22;8655;57.106;-2.088;2023-12-20T11:02:33;13.60;53.90
17080;DHT22;8655;57.106;-2.088;2023-12-20T11:08:03;13.50;53.80
17080;DHT22;8655;57.106;-2.088;2023-12-20T11:10:38;13.60;53.90
17080;DHT22;8655;57.106;-2.088;2023-12-20T11:13:23;13.60;53.90
17080;DHT22;8655;57.106;-2.088;2023-12-20T11:15:52;13.50;53.90
17080;DHT22;8655;57.106;-2.088;2023-12-20T11:18:18;13.60;53.90
17080;DHT22;8655;57.106;-2.088;2023-12-20T11:20:43;13.60;53.90
17080;DHT22;8655;57.106;-2.088;2023-12-20T11:23:09;13.60;53.90
17080;DHT22;8655;57.106;-2.088;2023-12-20T11:25:49;13.60;53.90
17080;DHT22;8655;57.106;-2.088;2023-12-20T11:28:21;13.60;53.90
17080;DHT22;8655;57.106;-2.088;2023-12-20T11:30:47;13.60;53.90
17080;DHT22;8655;57.106;-2.088;2023-12-20T11:33:14;13.60;53.90
17080;DHT22;8655;57.106;-2.088;2023-12-20T11:35:41;13.60;53.90
17080;DHT22;8655;57.106;-2.088;2023-12-20T11:38:10;13.60;53.90
17080;DHT22;8655;57.106;-2.088;2023-12-20T11:40:36;13.60;53.90
17080;DHT22;8655;57.106;-2.088;2023-12-20T11:43:03;13.60;53.90
17080;DHT22;8655;57.106;-2.088;2023-12-20T11:45:30;13.60;53.90
17080;DHT22;8655;57.106;-2.088;2023-12-20T11:47:56;13.60;53.90
17080;DHT22;8655;57.106;-2.088;2023-12-20T11:50:23;13.60;54.00
17080;DHT22;8655;57.106;-2.088;2023-12-20T11:52:51;13.60;53.90
17080;DHT22;8655;57.106;-2.088;2023-12-20T11:55:17;13.60;54.00
17080;DHT22;8655;57.106;-2.088;2023-12-20T11:57:43;13.60;53.90
17080;DHT22;8655;57.106;-2.088;2023-12-20T12:00:10;13.60;54.00
17080;DHT22;8655;57.106;-2.088;2023-12-20T12:02:36;13.60;53.90
17080;DHT22;8655;57.106;-2.088;2023-12-20T12:05:02;13.60;54.00
17080;DHT22;8655;57.106;-2.088;2023-12-20T12:07:31;13.60;54.00
17080;DHT22;8655;57.106;-2.088;2023-12-20T12:09:57;13.60;54.00
17080;DHT22;8655;57.106;-2.088;2023-12-20T12:12:24;13.60;54.00
17080;DHT22;8655;57.106;-2.088;2023-12-20T12:14:50;13.60;54.00
17080;DHT22;8655;57.106;-2.088;2023-12-20T12:17:16;13.60;54.00
17080;DHT22;8655;57.106;-2.088;2023-12-20T12:19:43;13.60;54.00
17080;DHT22;8655;57.106;-2.088;2023-12-20T12:22:13;13.60;54.00
17080;DHT22;8655;57.106;-2.088;2023-12-20T12:24:43;13.60;54.00
17080;DHT22;8655;57.106;-2.088;2023-12-20T12:27:10;13.60;54.00
17080;DHT22;8655;57.106;-2.088;2023-12-20T12:29:36;13.60;54.00
17080;DHT22;8655;57.106;-2.088;2023-12-20T12:32:09;13.60;54.00
17080;DHT22;8655;57.106;-2.088;2023-12-20T12:34:35;13.60;54.00
17080;DHT22;8655;57.106;-2.088;2023-12-20T12:37:01;13.60;54.60
17080;DHT22;8655;57.106;-2.088;2023-12-20T12:39:27;13.60;54.00
17080;DHT22;8655;57.106;-2.088;2023-12-20T12:41:55;13.60;54.00
17080;DHT22;8655;57.106;-2.088;2023-12-20T12:44:21;13.60;54.00
17080;DHT22;8655;57.106;-2.088;2023-12-20T12:46:49;13.60;54.00
17080;DHT22;8655;57.106;-2.088;2023-12-20T12:49:22;13.60;54.00
17080;DHT22;8655;57.106;-2.088;2023-12-20T12:51:48;13.60;54.00
17080;DHT22;8655;57.106;-2.088;2023-12-20T12:54:14;13.60;54.00
17080;DHT22;8655;57.106;-2.088;2023-12-20T12:56:43;13.60;54.00
17080;DHT22;8655;57.106;-2.088;2023-12-20T12:59:08;13.60;54.00
17080;DHT22;8655;57.106;-2.088;2023-12-20T13:01:34;13.60;54.00
17080;DHT22;8655;57.106;-2.088;2023-12-20T13:04:00;13.60;54.00
17080;DHT22;8655;57.106;-2.088;2023-12-20T13:06:28;13.60;54.00
17080;DHT22;8655;57.106;-2.088;2023-12-20T13:08:54;13.60;54.00
17080;DHT22;8655;57.106;-2.088;2023-12-20T13:11:20;13.60;54.00
17080;DHT22;8655;57.106;-2.088;2023-12-20T13:13:46;13.60;54.00
17080;DHT22;8655;57.106;-2.088;2023-12-20T13:16:12;13.60;54.00
17080;DHT22;8655;57.106;-2.088;2023-12-20T13:18:38;13.60;54.00
17080;DHT22;8655;57.106;-2.088;2023-12-20T13:21:08;13.60;54.10
17080;DHT22;8655;57.106;-2.088;2023-12-20T13:23:34;13.60;54.00
17080;DHT22;8655;57.106;-2.088;2023-12-20T13:26:00;13.60;54.00
17080;DHT22;8655;57.106;-2.088;2023-12-20T13:28:25;13.60;54.10
17080;DHT22;8655;57.106;-2.088;2023-12-20T13:30:51;13.60;54.00
17080;DHT22;8655;57.106;-2.088;2023-12-20T13:33:17;13.60;54.60
17080;DHT22;8655;57.106;-2.088;2023-12-20T13:35:42;13.60;54.00
17080;DHT22;8655;57.106;-2.088;2023-12-20T13:38:08;13.60;54.00
17080;DHT22;8655;57.106;-2.088;2023-12-20T13:40:34;13.60;54.10
17080;DHT22;8655;57.106;-2.088;2023-12-20T13:42:59;13.60;54.00
17080;DHT22;8655;57.106;-2.088;2023-12-20T13:45:25;13.60;54.10
17080;DHT22;8655;57.106;-2.088;2023-12-20T13:47:51;13.60;54.10
17080;DHT22;8655;57.106;-2.088;2023-12-20T13:50:16;13.60;54.10
17080;DHT22;8655;57.106;-2.088;2023-12-20T13:52:42;13.60;54.10
17080;DHT22;8655;57.106;-2.088;2023-12-20T13:55:09;13.60;54.10
17080;DHT22;8655;57.106;-2.088;2023-12-20T13:57:35;13.60;54.10
17080;DHT22;8655;57.106;-2.088;2023-12-20T14:00:04;13.60;54.10
17080;DHT22;8655;57.106;-2.088;2023-12-20T14:02:30;13.60;54.10
17080;DHT22;8655;57.106;-2.088;2023-12-20T14:04:56;13.70;54.20
17080;DHT22;8655;57.106;-2.088;2023-12-20T14:07:21;13.60;54.10
17080;DHT22;8655;57.106;-2.088;2023-12-20T14:09:47;13.60;54.10
17080;DHT22;8655;57.106;-2.088;2023-12-20T14:12:14;13.70;54.20
17080;DHT22;8655;57.106;-2.088;2023-12-20T14:14:40;13.70;54.20
17080;DHT22;8655;57.106;-2.088;2023-12-20T14:17:06;13.70;54.20
17080;DHT22;8655;57.106;-2.088;2023-12-20T14:19:32;13.60;54.70
17080;DHT22;8655;57.106;-2.088;2023-12-20T14:21:58;13.60;54.10
17080;DHT22;8655;57.106;-2.088;2023-12-20T14:24:27;13.70;54.20
17080;DHT22;8655;57.106;-2.088;2023-12-20T14:26:53;13.70;54.20
17080;DHT22;8655;57.106;-2.088;2023-12-20T14:29:18;13.60;54.10
17080;DHT22;8655;57.106;-2.088;2023-12-20T14:31:45;13.70;54.20
17080;DHT22;8655;57.106;-2.088;2023-12-20T14:34:11;13.70;54.20
17080;DHT22;8655;57.106;-2.088;2023-12-20T14:36:37;13.70;54.20
17080;DHT22;8655;57.106;-2.088;2023-12-20T14:39:03;13.70;54.20
17080;DHT22;8655;57.106;-2.088;2023-12-20T14:41:32;13.70;54.20
17080;DHT22;8655;57.106;-2.088;2023-12-20T14:43:58;13.70;54.20
17080;DHT22;8655;57.106;-2.088;2023-12-20T14:46:25;13.70;54.20
17080;DHT22;8655;57.106;-2.088;2023-12-20T14:48:51;13.70;54.80
17080;DHT22;8655;57.106;-2.088;2023-12-20T14:51:16;13.70;54.20
17080;DHT22;8655;57.106;-2.088;2023-12-20T14:53:42;13.70;54.20
17080;DHT22;8655;57.106;-2.088;2023-12-20T14:56:08;13.70;54.30
17080;DHT22;8655;57.106;-2.088;2023-12-20T14:58:34;13.70;54.20
17080;DHT22;8655;57.106;-2.088;2023-12-20T15:01:00;13.70;54.20
17080;DHT22;8655;57.106;-2.088;2023-12-20T15:03:25;13.70;54.20
17080;DHT22;8655;57.106;-2.088;2023-12-20T15:05:51;13.70;54.20
17080;DHT22;8655;57.106;-2.088;2023-12-20T15:08:17;13.70;54.20
17080;DHT22;8655;57.106;-2.088;2023-12-20T15:10:42;13.70;54.30
17080;DHT22;8655;57.106;-2.088;2023-12-20T15:13:08;13.70;54.30
17080;DHT22;8655;57.106;-2.088;2023-12-20T15:15:34;13.70;54.30
17080;DHT22;8655;57.106;-2.088;2023-12-20T15:18:00;13.70;54.30
17080;DHT22;8655;57.106;-2.088;2023-12-20T15:20:28;13.70;54.30
17080;DHT22;8655;57.106;-2.088;2023-12-20T15:22:54;13.70;54.30
17080;DHT22;8655;57.106;-2.088;2023-12-20T15:25:20;13.70;54.30
17080;DHT22;8655;57.106;-2.088;2023-12-20T15:27:50;13.70;54.30
17080;DHT22;8655;57.106;-2.088;2023-12-20T15:30:20;13.70;54.30